createdAt,value
2024-02-29T00:01:08.854Z,11.20
2024-02-29T00:03:35.910Z,11.30
2024-02-29T00:06:03.054Z,11.30
2024-02-29T00:08:30.041Z,11.30
2024-02-29T00:10:57.089Z,11.30
2024-02-29T00:13:24.488Z,11.30
2024-02-29T00:15:51.748Z,11.30
2024-02-29T00:18:18.794Z,11.30
2024-02-29T00:20:45.763Z,11.30
2024-02-29T00:23:12.812Z,11.30
2024-02-29T00:25:40.999Z,11.30
2024-02-29T00:28:07.975Z,11.30
2024-02-29T00:30:35.236Z,11.20
2024-02-29T00:33:04.435Z,11.20
2024-02-29T00:35:32.848Z,11.20
2024-02-29T00:37:59.886Z,11.20
2024-02-29T00:40:27.385Z,11.30
2024-02-29T00:42:54.349Z,11.20
2024-02-29T00:45:21.479Z,11.20
2024-02-29T00:47:48.479Z,11.20
2024-02-29T00:50:16.395Z,11.20
2024-02-29T00:52:43.488Z,11.20
2024-02-29T00:55:14.316Z,11.20
2024-02-29T00:57:45.534Z,11.20
2024-02-29T01:00:13.202Z,11.20
2024-02-29T01:02:40.278Z,11.20
2024-02-29T01:05:10.543Z,11.20
2024-02-29T01:07:37.833Z,11.20
2024-02-29T01:10:06.570Z,11.20
2024-02-29T01:12:33.756Z,11.20
2024-02-29T01:15:00.683Z,11.20
2024-02-29T01:17:27.812Z,11.20
2024-02-29T01:19:54.773Z,11.20
2024-02-29T01:22:21.985Z,11.20
2024-02-29T01:24:49.483Z,11.20
2024-02-29T01:27:16.436Z,11.20
2024-02-29T01:29:43.655Z,11.20
2024-02-29T01:32:18.596Z,11.20
2024-02-29T01:34:49.945Z,11.20
2024-02-29T01:37:17.104Z,11.20
2024-02-29T01:39:44.224Z,11.20
2024-02-29T01:42:12.393Z,11.20
2024-02-29T01:45:00.778Z,11.20
2024-02-29T01:47:27.955Z,11.10
2024-02-29T01:49:58.273Z,11.10
2024-02-29T01:52:26.583Z,11.10
2024-02-29T01:54:53.564Z,11.10
2024-02-29T01:57:20.645Z,11.10
2024-02-29T01:59:47.762Z,11.10
2024-02-29T02:02:14.848Z,11.10
2024-02-29T02:04:42.085Z,11.10
2024-02-29T02:07:09.150Z,11.10
2024-02-29T02:09:36.631Z,11.10
2024-02-29T02:12:03.768Z,11.10
2024-02-29T02:14:31.475Z,11.10
2024-02-29T02:16:58.622Z,11.00
2024-02-29T02:19:25.655Z,11.00
2024-02-29T02:21:53.168Z,11.00
2024-02-29T02:24:22.079Z,11.00
2024-02-29T02:26:49.119Z,11.00
2024-02-29T02:29:16.050Z,11.00
2024-02-29T02:31:43.065Z,11.00
2024-02-29T02:34:10.087Z,11.00
2024-02-29T02:36:37.150Z,11.00
2024-02-29T02:39:04.103Z,11.00
2024-02-29T02:41:31.143Z,11.00
2024-02-29T02:43:58.015Z,11.00
2024-02-29T02:46:25.160Z,11.00
2024-02-29T02:48:52.119Z,11.00
2024-02-29T02:51:19.285Z,11.00
2024-02-29T02:53:46.177Z,10.90
2024-02-29T02:56:13.218Z,10.90
2024-02-29T02:58:40.112Z,10.90
2024-02-29T03:01:07.139Z,10.90
2024-02-29T03:03:34.372Z,10.90
2024-02-29T03:06:01.350Z,10.90
2024-02-29T03:08:28.311Z,10.90
2024-02-29T03:10:55.394Z,10.90
2024-02-29T03:13:22.500Z,10.90
2024-02-29T03:15:49.850Z,10.90
2024-02-29T03:18:18.296Z,10.90
2024-02-29T03:20:45.384Z,10.90
2024-02-29T03:23:12.283Z,11.00
2024-02-29T03:25:39.281Z,10.90
2024-02-29T03:28:06.561Z,10.90
2024-02-29T03:30:34.108Z,10.90
2024-02-29T03:33:01.273Z,10.90
2024-02-29T03:35:28.350Z,10.90
2024-02-29T03:37:55.231Z,10.90
2024-02-29T03:40:22.260Z,10.90
2024-02-29T03:42:49.608Z,10.90
2024-02-29T03:45:16.677Z,10.90
2024-02-29T03:47:43.704Z,10.90
2024-02-29T03:50:14.578Z,10.90
2024-02-29T03:52:41.854Z,10.90
2024-02-29T03:55:09.345Z,10.90
2024-02-29T03:57:36.410Z,10.90
2024-02-29T04:00:03.998Z,11.00
2024-02-29T04:02:31.197Z,10.90
2024-02-29T04:04:58.156Z,10.90
2024-02-29T04:07:25.192Z,10.90
2024-02-29T04:09:55.937Z,10.90
2024-02-29T04:12:25.796Z,10.90
2024-02-29T04:14:53.024Z,10.90
2024-02-29T04:17:19.992Z,10.90
2024-02-29T04:19:47.310Z,10.90
2024-02-29T04:22:17.326Z,10.90
2024-02-29T04:24:44.481Z,10.90
2024-02-29T04:27:11.456Z,10.90
2024-02-29T04:29:38.466Z,10.90
2024-02-29T04:32:05.636Z,10.90
2024-02-29T04:34:32.557Z,10.90
2024-02-29T04:36:59.507Z,10.90
2024-02-29T04:39:26.942Z,10.90
2024-02-29T04:41:53.829Z,10.90
2024-02-29T04:44:20.805Z,10.90
2024-02-29T04:46:47.840Z,10.80
2024-02-29T04:49:14.893Z,10.80
2024-02-29T04:51:41.901Z,10.80
2024-02-29T04:54:08.911Z,10.80
2024-02-29T04:56:36.775Z,10.70
2024-02-29T04:59:05.797Z,10.70
2024-02-29T05:01:33.435Z,10.70
2024-02-29T05:04:00.542Z,10.70
2024-02-29T05:06:29.080Z,10.70
2024-02-29T05:08:56.196Z,10.70
2024-02-29T05:11:23.186Z,10.70
2024-02-29T05:13:50.124Z,10.70
2024-02-29T05:16:21.461Z,10.70
2024-02-29T05:18:48.679Z,10.70
2024-02-29T05:21:15.727Z,10.60
2024-02-29T05:23:42.864Z,10.60
2024-02-29T05:26:11.487Z,10.70
2024-02-29T05:28:38.468Z,10.70
2024-02-29T05:31:05.567Z,10.70
2024-02-29T05:33:32.713Z,10.70
2024-02-29T05:35:59.809Z,10.70
2024-02-29T05:38:27.223Z,10.60
2024-02-29T05:40:54.292Z,10.60
2024-02-29T05:43:21.359Z,10.70
2024-02-29T05:45:48.345Z,10.70
2024-02-29T05:48:15.528Z,10.60
2024-02-29T05:50:42.685Z,10.60
2024-02-29T05:53:11.640Z,10.60
2024-02-29T05:55:38.700Z,10.60
2024-02-29T05:58:05.835Z,10.60
2024-02-29T06:00:32.967Z,10.60
2024-02-29T06:03:00.200Z,10.60
2024-02-29T06:05:29.129Z,10.70
2024-02-29T06:07:56.134Z,10.60
2024-02-29T06:10:23.742Z,10.60
2024-02-29T06:12:50.781Z,10.60
2024-02-29T06:15:19.213Z,10.60
2024-02-29T06:17:46.343Z,10.70
2024-02-29T06:20:13.766Z,10.60
2024-02-29T06:22:41.394Z,10.60
2024-02-29T06:25:12.079Z,10.70
2024-02-29T06:27:40.368Z,10.60
2024-02-29T06:30:09.328Z,10.60
2024-02-29T06:32:37.073Z,10.60
2024-02-29T06:35:04.405Z,10.60
2024-02-29T06:37:31.509Z,10.70
2024-02-29T06:39:59.825Z,10.70
2024-02-29T06:42:27.121Z,10.60
2024-02-29T06:44:54.011Z,10.60
2024-02-29T06:47:23.554Z,10.60
2024-02-29T06:49:50.996Z,10.50
2024-02-29T06:52:18.193Z,10.50
2024-02-29T06:54:46.389Z,10.50
2024-02-29T06:57:13.622Z,10.50
2024-02-29T06:59:40.753Z,10.50
2024-02-29T07:02:07.919Z,10.50
2024-02-29T07:04:35.713Z,10.50
2024-02-29T07:07:04.732Z,10.60
2024-02-29T07:09:33.743Z,10.50
2024-02-29T07:12:01.244Z,10.60
2024-02-29T07:14:28.861Z,10.60
2024-02-29T07:16:56.325Z,10.60
2024-02-29T07:19:23.416Z,10.60
2024-02-29T07:21:50.974Z,10.60
2024-02-29T07:24:18.127Z,10.60
2024-02-29T07:26:45.187Z,10.60
2024-02-29T07:29:12.965Z,10.60
2024-02-29T07:31:43.275Z,10.60
2024-02-29T07:34:11.952Z,10.60
2024-02-29T07:36:39.158Z,10.60
2024-02-29T07:39:08.028Z,10.70
2024-02-29T07:41:36.299Z,10.70
2024-02-29T07:44:03.349Z,10.70
2024-02-29T07:46:30.371Z,10.70
2024-02-29T07:48:57.565Z,10.70
2024-02-29T07:51:26.074Z,10.70
2024-02-29T07:53:53.096Z,10.80
2024-02-29T07:56:20.408Z,10.80
2024-02-29T07:58:47.851Z,10.80
2024-02-29T08:01:14.976Z,10.80
2024-02-29T08:03:42.319Z,10.80
2024-02-29T08:06:09.333Z,10.80
2024-02-29T08:08:36.414Z,10.80
2024-02-29T08:11:06.016Z,10.80
2024-02-29T08:13:33.068Z,10.90
2024-02-29T08:15:59.938Z,10.90
2024-02-29T08:18:26.924Z,10.90
2024-02-29T08:20:53.943Z,10.90
2024-02-29T08:23:20.950Z,10.90
2024-02-29T08:25:47.873Z,10.90
2024-02-29T08:28:14.954Z,10.90
2024-02-29T08:30:41.979Z,10.90
2024-02-29T08:33:08.998Z,10.90
2024-02-29T08:35:36.088Z,10.90
2024-02-29T08:38:03.123Z,10.90
2024-02-29T08:40:30.258Z,10.90
2024-02-29T08:42:57.402Z,11.00
2024-02-29T08:45:24.414Z,11.00
2024-02-29T08:47:51.522Z,11.00
2024-02-29T08:50:18.531Z,11.00
2024-02-29T08:52:45.518Z,11.00
2024-02-29T08:55:12.589Z,11.10
2024-02-29T08:57:39.730Z,11.10
2024-02-29T09:00:07.354Z,11.10
2024-02-29T09:02:34.289Z,11.20
2024-02-29T09:05:01.231Z,11.20
2024-02-29T09:07:28.137Z,11.30
2024-02-29T09:09:55.120Z,11.30
2024-02-29T09:12:24.165Z,11.30
2024-02-29T09:14:51.092Z,11.20
2024-02-29T09:17:18.055Z,11.20
2024-02-29T09:19:45.664Z,11.20
2024-02-29T09:22:12.726Z,11.30
2024-02-29T09:24:39.736Z,11.30
2024-02-29T09:27:06.690Z,11.30
2024-02-29T09:29:34.778Z,11.30
2024-02-29T09:32:03.216Z,11.30
2024-02-29T09:34:35.465Z,11.30
2024-02-29T09:37:05.992Z,11.20
2024-02-29T09:39:33.465Z,11.20
2024-02-29T09:42:12.385Z,11.20
2024-02-29T09:44:41.431Z,11.20
2024-02-29T09:47:08.343Z,11.20
2024-02-29T09:49:35.319Z,11.20
2024-02-29T09:52:21.216Z,11.20
2024-02-29T09:54:48.139Z,11.30
2024-02-29T09:57:15.041Z,11.30
2024-02-29T09:59:45.168Z,11.30
2024-02-29T10:02:18.521Z,11.30
2024-02-29T10:04:47.260Z,11.40
2024-02-29T10:07:15.772Z,11.40
2024-02-29T10:09:43.559Z,11.40
2024-02-29T10:12:17.920Z,11.40
2024-02-29T10:14:45.480Z,11.40
2024-02-29T10:17:12.413Z,11.40
2024-02-29T10:19:39.740Z,11.40
2024-02-29T10:22:08.124Z,11.30
2024-02-29T10:24:35.678Z,11.40
2024-02-29T10:27:03.567Z,11.40
2024-02-29T10:29:30.820Z,11.50
2024-02-29T10:31:59.173Z,11.50
2024-02-29T10:34:26.223Z,11.50
2024-02-29T10:36:53.202Z,11.50
2024-02-29T10:39:20.179Z,11.50
2024-02-29T10:41:50.856Z,11.50
2024-02-29T10:44:21.824Z,11.50
2024-02-29T10:46:51.909Z,11.60
2024-02-29T10:49:24.671Z,11.70
2024-02-29T10:52:08.968Z,11.80
2024-02-29T10:54:41.551Z,11.80
2024-02-29T10:57:15.659Z,11.80
2024-02-29T10:59:52.700Z,11.80
2024-02-29T11:02:19.806Z,11.80
2024-02-29T11:04:46.767Z,11.80
2024-02-29T11:07:14.262Z,11.90
2024-02-29T11:09:41.261Z,12.00
2024-02-29T11:12:12.305Z,12.00
2024-02-29T11:14:39.385Z,11.90
2024-02-29T11:17:06.562Z,11.90
2024-02-29T11:19:42.638Z,12.00
2024-02-29T11:22:15.683Z,12.00
2024-02-29T11:24:47.327Z,12.00
2024-02-29T11:27:14.500Z,12.00
2024-02-29T11:29:46.391Z,12.00
2024-02-29T11:32:14.434Z,12.10
2024-02-29T11:34:41.498Z,12.10
2024-02-29T11:37:09.169Z,12.00
2024-02-29T11:39:36.172Z,12.10
2024-02-29T11:42:04.650Z,12.00
2024-02-29T11:44:35.274Z,12.10
2024-02-29T11:47:02.158Z,12.00
2024-02-29T11:49:29.187Z,11.90
2024-02-29T11:51:56.538Z,11.90
2024-02-29T11:54:26.624Z,12.00
2024-02-29T11:56:55.237Z,11.90
2024-02-29T11:59:22.400Z,11.90
2024-02-29T12:01:49.448Z,11.80
2024-02-29T12:04:16.803Z,11.90
2024-02-29T12:06:48.235Z,11.80
2024-02-29T12:09:16.036Z,11.80
2024-02-29T12:11:45.068Z,11.80
2024-02-29T12:14:12.191Z,11.70
2024-02-29T12:16:39.627Z,11.70
2024-02-29T12:19:10.092Z,11.60
2024-02-29T12:21:37.331Z,11.50
2024-02-29T12:24:06.282Z,11.30
2024-02-29T12:26:33.292Z,11.10
2024-02-29T12:29:00.751Z,11.00
2024-02-29T12:31:27.861Z,10.90
2024-02-29T12:33:55.315Z,10.90
2024-02-29T12:36:22.694Z,10.90
2024-02-29T12:38:49.839Z,10.80
2024-02-29T12:41:16.764Z,10.80
2024-02-29T12:43:50.347Z,10.90
2024-02-29T12:46:17.684Z,11.00
2024-02-29T12:48:44.925Z,11.00
2024-02-29T12:51:12.142Z,10.90
2024-02-29T12:53:39.251Z,11.00
2024-02-29T12:56:06.503Z,11.00
2024-02-29T12:58:33.688Z,11.00
2024-02-29T13:01:01.306Z,10.90
2024-02-29T13:03:28.676Z,10.70
2024-02-29T13:05:55.701Z,10.70
2024-02-29T13:08:25.681Z,10.60
2024-02-29T13:10:52.698Z,10.60
2024-02-29T13:13:19.840Z,10.50
2024-02-29T13:15:47.143Z,10.50
2024-02-29T13:18:14.271Z,10.50
2024-02-29T13:20:41.666Z,10.50
2024-02-29T13:23:11.529Z,10.60
2024-02-29T13:25:38.705Z,10.50
2024-02-29T13:28:05.885Z,10.50
2024-02-29T13:30:32.903Z,10.60
2024-02-29T13:32:59.925Z,10.70
2024-02-29T13:35:27.532Z,10.80
2024-02-29T13:37:54.530Z,10.90
2024-02-29T13:40:22.109Z,11.00
2024-02-29T13:42:49.704Z,10.90
2024-02-29T13:45:16.989Z,11.00
2024-02-29T13:47:49.667Z,10.90
2024-02-29T13:50:17.002Z,10.80
2024-02-29T13:52:44.375Z,10.80
2024-02-29T13:55:11.993Z,10.80
2024-02-29T13:57:40.146Z,10.70
2024-02-29T14:00:10.306Z,10.70
2024-02-29T14:02:41.091Z,10.70
2024-02-29T14:05:08.454Z,10.80
2024-02-29T14:07:35.690Z,10.90
2024-02-29T14:10:03.431Z,10.90
2024-02-29T14:12:32.828Z,11.00
2024-02-29T14:14:59.849Z,11.00
2024-02-29T14:17:26.860Z,10.90
2024-02-29T14:19:53.992Z,11.00
2024-02-29T14:22:21.019Z,11.00
2024-02-29T14:24:50.443Z,11.00
2024-02-29T14:27:17.924Z,11.00
2024-02-29T14:29:45.893Z,11.00
2024-02-29T14:32:13.324Z,10.90
2024-02-29T14:34:40.474Z,10.80
2024-02-29T14:37:08.567Z,10.80
2024-02-29T14:39:35.755Z,10.90
2024-02-29T14:42:02.675Z,10.80
2024-02-29T14:44:29.715Z,10.80
2024-02-29T14:46:57.487Z,10.80
2024-02-29T14:49:24.630Z,10.70
2024-02-29T14:51:56.180Z,10.60
2024-02-29T14:54:23.125Z,10.50
2024-02-29T14:56:51.017Z,10.50
2024-02-29T14:59:18.197Z,10.40
2024-02-29T15:01:45.250Z,10.50
2024-02-29T15:04:13.529Z,10.40
2024-02-29T15:06:41.236Z,10.30
2024-02-29T15:09:09.228Z,10.20
2024-02-29T15:11:36.289Z,10.20
2024-02-29T15:14:03.334Z,10.10
2024-02-29T15:16:30.496Z,10.00
2024-02-29T15:18:58.017Z,10.00
2024-02-29T15:21:24.998Z,9.90
2024-02-29T15:23:52.051Z,9.80
2024-02-29T15:26:19.046Z,9.80
2024-02-29T15:28:49.544Z,9.80
2024-02-29T15:31:17.110Z,9.70
2024-02-29T15:33:44.686Z,9.70
2024-02-29T15:36:12.097Z,9.70
2024-02-29T15:38:39.031Z,9.70
2024-02-29T15:41:06.011Z,9.70
2024-02-29T15:43:33.022Z,9.70
2024-02-29T15:46:00.015Z,9.70
2024-02-29T15:48:26.951Z,9.60
2024-02-29T15:50:54.083Z,9.40
2024-02-29T15:53:21.018Z,9.30
2024-02-29T15:55:49.271Z,9.30
2024-02-29T15:58:16.943Z,9.20
2024-02-29T16:00:44.089Z,9.10
2024-02-29T16:03:11.109Z,9.00
2024-02-29T16:05:38.118Z,9.00
2024-02-29T16:08:05.257Z,9.00
2024-02-29T16:10:32.729Z,9.00
2024-02-29T16:12:59.989Z,9.00
2024-02-29T16:15:27.057Z,9.00
2024-02-29T16:17:54.862Z,8.90
2024-02-29T16:20:23.052Z,8.80
2024-02-29T16:22:50.263Z,8.80
2024-02-29T16:25:19.318Z,8.80
2024-02-29T16:27:46.706Z,8.70
2024-02-29T16:30:13.909Z,8.70
2024-02-29T16:32:43.667Z,8.70
